createdAt,value
2022-07-28T00:01:44.567Z,78.46
2022-07-28T00:04:47.550Z,77.79
2022-07-28T00:07:50.294Z,77.38
2022-07-28T00:10:54.224Z,77.34
2022-07-28T00:13:56.973Z,78.42
2022-07-28T00:17:01.348Z,78.03
2022-07-28T00:20:05.628Z,77.05
2022-07-28T00:23:08.655Z,77.30
2022-07-28T00:26:12.683Z,77.54
2022-07-28T00:29:15.641Z,76.83
2022-07-28T00:32:20.888Z,78.04
2022-07-28T00:35:30.238Z,77.49
2022-07-28T00:38:34.699Z,77.48
2022-07-28T00:41:38.293Z,77.46
2022-07-28T00:44:42.609Z,78.16
2022-07-28T00:47:45.586Z,77.56
2022-07-28T00:50:48.322Z,77.85
2022-07-28T00:53:51.809Z,78.89
2022-07-28T00:56:54.449Z,78.16
2022-07-28T00:59:57.569Z,77.96
2022-07-28T01:03:00.414Z,78.18
2022-07-28T01:06:12.209Z,77.53
2022-07-28T01:09:49.029Z,77.14
2022-07-28T01:12:58.818Z,77.42
2022-07-28T01:16:07.158Z,76.47
2022-07-28T01:19:22.818Z,76.70
2022-07-28T01:22:32.685Z,76.60
2022-07-28T01:26:00.490Z,77.42
2022-07-28T01:29:16.726Z,78.80
2022-07-28T01:32:23.966Z,79.32
2022-07-28T01:35:30.864Z,79.17
2022-07-28T01:38:36.152Z,78.98
2022-07-28T01:41:42.036Z,78.90
2022-07-28T01:44:48.891Z,78.78
2022-07-28T01:47:54.901Z,79.13
2022-07-28T01:50:58.065Z,79.72
2022-07-28T01:54:02.244Z,79.53
2022-07-28T01:57:08.503Z,78.81
2022-07-28T02:00:14.306Z,79.25
2022-07-28T02:03:19.556Z,78.92
2022-07-28T02:06:23.582Z,79.18
2022-07-28T02:09:30.580Z,79.93
2022-07-28T02:12:35.979Z,79.65
2022-07-28T02:15:42.065Z,79.12
2022-07-28T02:18:47.338Z,79.11
2022-07-28T02:21:52.335Z,79.51
2022-07-28T02:24:55.984Z,79.89
2022-07-28T02:28:04.317Z,79.96
2022-07-28T02:31:13.927Z,79.95
2022-07-28T02:34:21.613Z,80.16
2022-07-28T02:37:35.061Z,80.08
2022-07-28T02:40:40.695Z,79.12
2022-07-28T02:43:50.369Z,79.28
2022-07-28T02:46:56.360Z,80.08
2022-07-28T02:50:03.019Z,79.60
2022-07-28T02:53:15.553Z,80.29
2022-07-28T02:56:19.558Z,79.72
2022-07-28T02:59:23.789Z,79.26
2022-07-28T03:02:30.950Z,78.51
2022-07-28T03:05:34.422Z,78.25
2022-07-28T03:08:37.400Z,79.30
2022-07-28T03:11:53.392Z,79.17
2022-07-28T03:14:56.241Z,79.02
2022-07-28T03:18:01.217Z,79.64
2022-07-28T03:21:03.917Z,78.93
2022-07-28T03:24:08.990Z,79.41
2022-07-28T03:27:25.100Z,80.42
2022-07-28T03:30:40.754Z,80.80
2022-07-28T03:33:43.589Z,80.55
2022-07-28T03:36:50.215Z,81.14
2022-07-28T03:39:57.135Z,81.80
2022-07-28T03:43:08.330Z,81.76
2022-07-28T03:46:13.478Z,81.98
2022-07-28T03:49:16.925Z,82.09
2022-07-28T03:52:19.797Z,83.12
2022-07-28T03:55:23.146Z,82.49
2022-07-28T03:58:29.217Z,83.03
2022-07-28T04:01:32.418Z,82.90
2022-07-28T04:04:35.419Z,82.81
2022-07-28T04:07:38.644Z,83.12
2022-07-28T04:10:42.164Z,83.17
2022-07-28T04:13:46.181Z,83.37
2022-07-28T04:16:49.604Z,83.87
2022-07-28T04:19:52.372Z,83.76
2022-07-28T04:22:56.433Z,83.40
2022-07-28T04:25:59.048Z,83.56
2022-07-28T04:29:03.243Z,83.16
2022-07-28T04:32:06.312Z,83.74
2022-07-28T04:35:15.316Z,83.67
2022-07-28T04:38:20.517Z,83.51
2022-07-28T04:41:25.577Z,83.55
2022-07-28T04:44:29.617Z,83.61
2022-07-28T04:47:33.258Z,83.16
2022-07-28T04:50:36.032Z,82.95
2022-07-28T04:53:39.049Z,83.38
2022-07-28T04:56:41.795Z,82.91
2022-07-28T04:59:45.969Z,83.00
2022-07-28T05:02:51.800Z,82.39
2022-07-28T05:05:55.139Z,82.89
2022-07-28T05:08:57.876Z,82.66
2022-07-28T05:12:00.891Z,82.51
2022-07-28T05:15:06.081Z,81.39
2022-07-28T05:18:09.114Z,81.32
2022-07-28T05:21:12.054Z,81.20
2022-07-28T05:24:21.522Z,81.51
2022-07-28T05:27:24.257Z,81.21
2022-07-28T05:30:27.421Z,80.67
2022-07-28T05:33:31.880Z,80.34
2022-07-28T05:36:36.478Z,79.25
2022-07-28T05:39:39.462Z,79.98
2022-07-28T05:42:43.859Z,79.33
2022-07-28T05:45:47.255Z,79.06
2022-07-28T05:48:51.990Z,78.56
2022-07-28T05:51:54.705Z,77.96
2022-07-28T05:54:57.879Z,77.20
2022-07-28T05:58:02.087Z,76.68
2022-07-28T06:01:05.789Z,76.26
2022-07-28T06:04:26.736Z,75.72
2022-07-28T06:07:43.110Z,74.73
2022-07-28T06:10:59.270Z,72.12
2022-07-28T06:14:01.948Z,70.78
2022-07-28T06:17:05.257Z,68.85
2022-07-28T06:20:09.258Z,67.25
2022-07-28T06:23:17.575Z,66.65
2022-07-28T06:26:23.419Z,66.32
2022-07-28T06:29:26.718Z,66.99
2022-07-28T06:32:30.362Z,65.70
2022-07-28T06:35:45.886Z,63.93
2022-07-28T06:38:55.306Z,62.76
2022-07-28T06:41:58.312Z,63.91
2022-07-28T06:45:01.034Z,63.17
2022-07-28T06:48:04.264Z,63.27
2022-07-28T06:51:07.031Z,62.43
2022-07-28T06:54:11.536Z,60.31
2022-07-28T06:57:14.479Z,60.83
2022-07-28T07:00:20.126Z,60.50
2022-07-28T07:03:23.759Z,60.15
2022-07-28T07:06:26.844Z,59.33
2022-07-28T07:09:29.834Z,58.99
2022-07-28T07:12:35.352Z,57.89
2022-07-28T07:15:39.619Z,56.62
2022-07-28T07:18:42.613Z,55.23
2022-07-28T07:21:46.295Z,55.29
2022-07-28T07:24:53.545Z,56.49
2022-07-28T07:27:59.157Z,54.04
2022-07-28T07:31:02.311Z,52.75
2022-07-28T07:34:05.845Z,53.51
2022-07-28T07:37:13.816Z,53.12
2022-07-28T07:40:16.502Z,51.93
2022-07-28T07:43:19.702Z,51.70
2022-07-28T07:46:22.474Z,50.74
2022-07-28T07:49:25.561Z,50.25
2022-07-28T07:52:52.093Z,50.92
2022-07-28T07:55:55.198Z,50.44
2022-07-28T07:58:58.914Z,49.53
2022-07-28T08:02:02.192Z,48.42
2022-07-28T08:05:07.326Z,48.34
2022-07-28T08:08:11.576Z,47.35
2022-07-28T08:11:14.683Z,47.76
2022-07-28T08:14:18.162Z,47.13
2022-07-28T08:17:25.894Z,45.54
2022-07-28T08:20:29.691Z,45.59
2022-07-28T08:23:32.804Z,45.78
2022-07-28T08:26:35.748Z,44.27
2022-07-28T08:29:39.890Z,45.00
2022-07-28T08:32:43.078Z,44.05
2022-07-28T08:35:47.426Z,44.05
2022-07-28T08:38:51.863Z,42.73
2022-07-28T08:41:59.149Z,42.75
2022-07-28T08:45:07.175Z,41.94
2022-07-28T08:48:13.088Z,43.28
2022-07-28T08:51:18.736Z,43.07
2022-07-28T08:54:29.160Z,42.00
2022-07-28T08:57:35.433Z,41.37
2022-07-28T09:00:38.485Z,42.30
2022-07-28T09:03:42.948Z,43.31
2022-07-28T09:06:46.631Z,41.28
2022-07-28T09:09:50.511Z,40.01
2022-07-28T09:12:53.601Z,39.72
2022-07-28T09:15:56.613Z,39.62
2022-07-28T09:18:59.669Z,40.04
2022-07-28T09:22:02.379Z,39.60
2022-07-28T09:25:19.084Z,39.14
2022-07-28T09:28:24.046Z,38.11
2022-07-28T09:31:29.283Z,39.10
2022-07-28T09:34:47.047Z,37.80
2022-07-28T09:37:59.920Z,36.58
2022-07-28T09:41:06.544Z,36.06
2022-07-28T09:44:19.112Z,37.26
2022-07-28T09:47:24.413Z,35.27
2022-07-28T09:50:30.480Z,37.10
2022-07-28T09:53:33.225Z,36.04
2022-07-28T09:56:37.973Z,34.14
2022-07-28T09:59:44.162Z,34.79
2022-07-28T10:02:52.814Z,34.93
2022-07-28T10:05:56.998Z,34.90
2022-07-28T10:09:07.576Z,33.09
2022-07-28T10:12:27.718Z,32.59
2022-07-28T10:15:50.959Z,31.46
2022-07-28T10:18:57.617Z,30.42
2022-07-28T10:22:01.577Z,29.84
2022-07-28T10:25:12.973Z,30.93
2022-07-28T10:28:19.626Z,30.46
2022-07-28T10:31:41.152Z,30.57
2022-07-28T10:34:51.288Z,30.92
2022-07-28T10:38:16.297Z,30.93
2022-07-28T10:41:21.168Z,30.44
2022-07-28T10:44:25.120Z,30.11
2022-07-28T10:47:35.918Z,29.65
2022-07-28T10:50:40.176Z,29.94
2022-07-28T10:54:06.047Z,28.60
2022-07-28T10:57:12.734Z,30.54
2022-07-28T11:00:26.556Z,28.86
2022-07-28T11:03:43.899Z,27.41
2022-07-28T11:06:48.305Z,27.53
2022-07-28T11:09:52.338Z,26.77
2022-07-28T11:12:58.421Z,27.10
2022-07-28T11:16:22.052Z,27.60
2022-07-28T11:19:36.687Z,26.43
2022-07-28T11:22:44.993Z,26.68
2022-07-28T11:26:19.956Z,25.78
2022-07-28T11:29:25.409Z,25.02
2022-07-28T11:32:52.850Z,25.60
2022-07-28T11:35:59.319Z,25.68
2022-07-28T11:39:27.901Z,24.97
2022-07-28T11:42:37.096Z,24.78
2022-07-28T11:45:44.395Z,25.21
2022-07-28T11:49:17.915Z,24.00
2022-07-28T11:52:21.302Z,24.25
2022-07-28T11:55:49.260Z,24.24
2022-07-28T11:58:57.318Z,23.13
2022-07-28T12:02:00.417Z,22.90
2022-07-28T12:05:10.087Z,23.72
2022-07-28T12:08:12.882Z,24.53
2022-07-28T12:11:18.307Z,23.59
2022-07-28T12:14:22.778Z,23.38
2022-07-28T12:17:34.837Z,22.89
2022-07-28T12:20:48.547Z,23.85
2022-07-28T12:23:54.498Z,24.12
2022-07-28T12:27:00.735Z,23.01
2022-07-28T12:30:04.812Z,23.91
2022-07-28T12:33:29.317Z,23.77
2022-07-28T12:36:34.682Z,22.95
2022-07-28T12:39:40.003Z,23.23
2022-07-28T12:42:45.358Z,24.26
2022-07-28T12:45:56.569Z,23.89
2022-07-28T12:49:01.943Z,22.72
2022-07-28T12:52:25.965Z,23.20
2022-07-28T12:55:30.927Z,24.33
2022-07-28T12:58:36.333Z,23.94
2022-07-28T13:01:52.327Z,23.46
2022-07-28T13:04:55.271Z,23.71
2022-07-28T13:08:03.357Z,23.03
2022-07-28T13:11:17.335Z,24.71
2022-07-28T13:14:45.485Z,23.71
2022-07-28T13:17:57.274Z,23.72
2022-07-28T13:21:00.348Z,23.04
2022-07-28T13:24:05.206Z,23.42
2022-07-28T13:27:09.055Z,23.73
2022-07-28T13:30:12.200Z,22.78
2022-07-28T13:33:16.777Z,22.20
2022-07-28T13:36:19.431Z,22.46
2022-07-28T13:39:22.723Z,22.87
2022-07-28T13:42:25.406Z,23.05
2022-07-28T13:45:30.347Z,23.24
2022-07-28T13:48:33.372Z,23.22
2022-07-28T13:51:36.933Z,23.44
2022-07-28T13:54:40.497Z,23.54
2022-07-28T13:57:43.517Z,24.35
2022-07-28T14:00:46.468Z,22.83
2022-07-28T14:03:56.892Z,22.70
2022-07-28T14:07:02.121Z,23.34
2022-07-28T14:10:06.859Z,23.13
2022-07-28T14:13:09.886Z,23.29
2022-07-28T14:16:14.810Z,24.36
2022-07-28T14:19:23.415Z,24.67
2022-07-28T14:22:41.343Z,25.36
2022-07-28T14:25:49.145Z,25.32
2022-07-28T14:28:52.665Z,25.28
2022-07-28T14:31:56.089Z,25.26
2022-07-28T14:34:59.525Z,25.07
2022-07-28T14:38:49.905Z,25.13
2022-07-28T14:41:26.116Z,24.87
2022-07-28T14:44:30.260Z,25.13
2022-07-28T14:47:44.989Z,25.05
2022-07-28T14:50:48.667Z,25.42
2022-07-28T14:53:52.311Z,25.23
2022-07-28T14:56:55.154Z,25.65
2022-07-28T14:59:58.242Z,25.42
2022-07-28T15:03:01.024Z,25.71
2022-07-28T15:06:05.779Z,26.03
2022-07-28T15:09:09.647Z,26.47
2022-07-28T15:12:12.713Z,26.34
2022-07-28T15:15:15.769Z,26.79
2022-07-28T15:18:18.848Z,26.90
2022-07-28T15:21:21.576Z,26.94
2022-07-28T15:24:27.724Z,26.96
2022-07-28T15:27:33.837Z,27.35
2022-07-28T15:30:49.153Z,28.14
2022-07-28T15:33:54.935Z,28.35
2022-07-28T15:37:01.255Z,28.42
2022-07-28T15:40:04.733Z,28.60
2022-07-28T15:43:07.807Z,28.66
2022-07-28T15:46:13.163Z,28.87
2022-07-28T15:49:16.381Z,28.99
2022-07-28T15:52:19.024Z,29.22
2022-07-28T15:55:22.066Z,29.42
2022-07-28T15:58:26.536Z,29.62
2022-07-28T16:01:30.532Z,29.31
2022-07-28T16:04:33.893Z,29.39
2022-07-28T16:07:50.548Z,29.25
2022-07-28T16:10:54.767Z,29.40
2022-07-28T16:13:57.934Z,29.69
2022-07-28T16:17:03.734Z,29.35
2022-07-28T16:20:10.365Z,29.53
2022-07-28T16:23:13.597Z,29.58
2022-07-28T16:26:16.305Z,29.83
2022-07-28T16:29:19.466Z,30.18
2022-07-28T16:32:22.168Z,30.33
2022-07-28T16:35:25.285Z,30.44
2022-07-28T16:38:28.549Z,30.40
2022-07-28T16:41:46.688Z,30.33
2022-07-28T16:44:50.477Z,30.24
2022-07-28T16:47:54.184Z,30.40
2022-07-28T16:50:56.964Z,30.76
2022-07-28T16:54:00.014Z,30.72
2022-07-28T16:57:02.889Z,30.63
2022-07-28T17:00:09.309Z,30.72
2022-07-28T17:03:13.905Z,30.80
2022-07-28T17:06:17.323Z,31.02
2022-07-28T17:09:19.981Z,31.08
2022-07-28T17:12:24.102Z,31.00
2022-07-28T17:15:27.000Z,31.29
2022-07-28T17:18:30.187Z,31.61
2022-07-28T17:21:32.979Z,31.53
2022-07-28T17:24:36.039Z,32.22
2022-07-28T17:27:42.237Z,32.16
2022-07-28T17:30:48.017Z,32.71
2022-07-28T17:33:50.640Z,32.79
2022-07-28T17:36:54.914Z,33.35
2022-07-28T17:39:59.383Z,33.79
2022-07-28T17:43:02.558Z,34.08
2022-07-28T17:46:10.530Z,34.35
2022-07-28T17:49:14.667Z,34.13
2022-07-28T17:52:17.539Z,34.48
2022-07-28T17:55:58.139Z,35.05
2022-07-28T17:58:59.368Z,35.34
2022-07-28T18:02:02.497Z,35.38
2022-07-28T18:05:05.767Z,35.66
2022-07-28T18:08:14.630Z,36.41
2022-07-28T18:11:17.908Z,36.43
2022-07-28T18:14:21.677Z,36.76
2022-07-28T18:17:25.461Z,37.29
2022-07-28T18:20:29.888Z,37.82
2022-07-28T18:23:32.950Z,38.45
2022-07-28T18:26:35.597Z,38.75
2022-07-28T18:29:38.964Z,39.46
2022-07-28T18:32:42.128Z,39.78
2022-07-28T18:35:46.091Z,40.24
2022-07-28T18:38:48.839Z,40.01
2022-07-28T18:41:56.149Z,40.41
2022-07-28T18:45:00.330Z,40.74
2022-07-28T18:48:04.523Z,41.42
2022-07-28T18:51:07.238Z,41.37
2022-07-28T18:54:10.207Z,41.34
2022-07-28T18:57:12.962Z,41.08
2022-07-28T19:00:16.290Z,41.57
2022-07-28T19:03:19.041Z,41.46
2022-07-28T19:06:26.415Z,41.57
2022-07-28T19:09:30.512Z,41.59
2022-07-28T19:12:40.222Z,42.02
2022-07-28T19:15:43.040Z,41.53
2022-07-28T19:18:46.156Z,41.34
2022-07-28T19:21:49.511Z,41.99
2022-07-28T19:24:53.371Z,41.90
2022-07-28T19:27:57.893Z,42.14
2022-07-28T19:31:10.415Z,42.23
2022-07-28T19:34:14.438Z,42.24
2022-07-28T19:37:25.604Z,42.47
2022-07-28T19:40:34.235Z,42.69
2022-07-28T19:43:37.691Z,42.65
2022-07-28T19:46:41.095Z,42.63
2022-07-28T19:49:44.475Z,42.79
2022-07-28T19:52:47.673Z,43.14
2022-07-28T19:55:53.341Z,43.70
2022-07-28T19:58:56.098Z,43.08
2022-07-28T20:02:00.390Z,43.19
2022-07-28T20:05:04.670Z,43.09
2022-07-28T20:08:07.538Z,43.34
2022-07-28T20:11:13.672Z,43.97
2022-07-28T20:14:17.174Z,44.18
2022-07-28T20:17:37.257Z,44.43
2022-07-28T20:20:41.537Z,44.44
2022-07-28T20:23:44.715Z,44.37
2022-07-28T20:26:47.458Z,44.47
2022-07-28T20:29:50.621Z,45.33
2022-07-28T20:32:53.273Z,45.34
2022-07-28T20:35:57.365Z,45.52
2022-07-28T20:39:00.091Z,45.94
2022-07-28T20:42:04.566Z,46.73
2022-07-28T20:45:07.859Z,47.18
2022-07-28T20:48:14.594Z,46.97
2022-07-28T20:51:18.294Z,47.10
2022-07-28T20:54:21.372Z,47.13
2022-07-28T20:57:24.087Z,47.69
2022-07-28T21:00:27.493Z,47.97
2022-07-28T21:03:30.233Z,47.26
2022-07-28T21:06:34.172Z,47.65
2022-07-28T21:09:36.969Z,47.54
2022-07-28T21:12:40.146Z,47.32
2022-07-28T21:15:42.973Z,47.67
2022-07-28T21:18:46.153Z,47.90
2022-07-28T21:21:48.822Z,47.91
2022-07-28T21:24:55.630Z,48.12
2022-07-28T21:28:17.800Z,48.95
2022-07-28T21:31:20.898Z,50.04
2022-07-28T21:34:23.660Z,50.57
2022-07-28T21:37:27.693Z,50.36
2022-07-28T21:40:30.481Z,49.93
2022-07-28T21:43:34.330Z,49.38
2022-07-28T21:46:39.120Z,49.43
2022-07-28T21:49:42.235Z,49.28
2022-07-28T21:52:44.917Z,49.18
2022-07-28T21:55:48.602Z,49.44
2022-07-28T21:58:51.343Z,49.28
2022-07-28T22:01:55.578Z,49.18
2022-07-28T22:04:58.770Z,49.48
2022-07-28T22:08:01.485Z,48.88
2022-07-28T22:11:04.569Z,49.78
2022-07-28T22:14:07.225Z,50.30
2022-07-28T22:17:10.859Z,50.17
2022-07-28T22:20:13.539Z,50.92
2022-07-28T22:23:28.898Z,50.91
2022-07-28T22:26:32.830Z,51.47
2022-07-28T22:29:36.357Z,52.19
2022-07-28T22:32:39.099Z,53.12
2022-07-28T22:35:43.472Z,53.79
2022-07-28T22:38:46.196Z,53.05
2022-07-28T22:41:49.374Z,53.50
2022-07-28T22:44:52.152Z,53.89
2022-07-28T22:47:55.328Z,54.30
2022-07-28T22:50:58.082Z,54.25
2022-07-28T22:54:02.603Z,54.49
2022-07-28T22:57:05.566Z,54.10
2022-07-28T23:00:09.793Z,54.65
2022-07-28T23:03:13.248Z,55.39
2022-07-28T23:06:16.658Z,55.43
2022-07-28T23:09:19.286Z,55.68
2022-07-28T23:12:22.347Z,55.73
2022-07-28T23:15:25.146Z,54.75
2022-07-28T23:18:44.913Z,55.45
2022-07-28T23:21:47.867Z,55.51
2022-07-28T23:24:50.903Z,55.51
2022-07-28T23:27:53.701Z,55.26
2022-07-28T23:30:58.167Z,55.86
2022-07-28T23:34:00.816Z,56.32
2022-07-28T23:37:03.959Z,55.69
2022-07-28T23:40:07.493Z,56.59
2022-07-28T23:43:10.584Z,55.76
2022-07-28T23:46:13.345Z,55.92
2022-07-28T23:49:18.578Z,56.50
2022-07-28T23:52:21.465Z,55.91
2022-07-28T23:55:24.612Z,56.47
2022-07-28T23:58:27.490Z,56.34
